LFRM/LME METAR and TAF weather

Enter ICAO airport designator
Station Type Date Time Source
LFRM METAR 2021/07/30 22:30 UTC NOAA

LFRM 302230Z AUTO 25004KT 220V280 9999 FEW031 17/12 Q1013


Station Type Date Time Source
LFRM Decoded METAR 2021/07/30 22:30 UTC NOAA

Le Mans, France (LFRM) 47-56N 000-12E 52M
Jul 30, 2021 - 06:30 PM EDT / 2021.07.30 2230 UTC
Wind: from the WSW (250 degrees) at 5 MPH (4 KT) (direction variable):0
Visibility: greater than 7 mile(s):0
Sky conditions: mostly clear
Temperature: 62 F (17 C)
Dew Point: 53 F (12 C)
Relative Humidity: 72%
Pressure (altimeter): 29.91 in. Hg (1013 hPa)
ob: LFRM 302230Z AUTO 25004KT 220V280 9999 FEW031 17/12 Q1013
cycle: 22

Station Type Date Time Source
LFRM TAF 2021/07/15 06:27 UTC NOAA

TAF TAF LFRM 150500Z 1506/1606 26004KT CAVOK PROB30
TEMPO 1506/1507 3000 BR
BECMG 1508/1510 32010KT
TEMPO 1604/1606 BKN014

Example: see airport list